Time;durP1;ratioP1;P1;durP2;ratioP2;P2;SDS_P1;SDS_P2;PMS_P1;PMS_P2;Temp;Humidity;BMP_temperature;BMP_pressure;BME280_temperature;BME280_humidity;BME280_pressure;Samples;Min_cycle;Max_cycle;Signal;HPM_P1;HPM_P2
2022/06/06 00:02:06;;;;;;;3.75;2.80;;;;;;;14.62;74.39;100772.17;1771284;78;21046;-88
2022/06/06 00:04:34;;;;;;;6.20;3.58;;;;;;;14.60;74.49;100763.52;1771447;81;20893;-84
2022/06/06 00:07:00;;;;;;;4.05;2.80;;;;;;;14.59;74.02;100766.64;1771448;81;20948;-86
2022/06/06 00:09:29;;;;;;;3.52;3.22;;;;;;;14.59;74.02;100766.64;1771728;81;20956;-86
2022/06/06 00:11:57;;;;;;;5.72;3.40;;;;;;;14.58;74.35;100766.75;1771663;81;20904;-86
2022/06/06 00:14:24;;;;;;;6.37;2.75;;;;;;;14.56;74.43;100770.81;1771863;81;21115;-87
2022/06/06 00:16:51;;;;;;;3.52;3.12;;;;;;;14.54;74.40;100772.72;1771750;78;20897;-87
2022/06/06 00:19:17;;;;;;;7.58;3.30;;;;;;;14.50;74.41;100786.61;1771589;78;21119;-86
2022/06/06 00:21:46;;;;;;;6.35;3.25;;;;;;;14.48;74.31;100785.04;1771794;78;20956;-86
2022/06/06 00:24:13;;;;;;;3.77;3.15;;;;;;;14.45;74.46;100782.16;1771849;81;20870;-86
2022/06/06 00:26:40;;;;;;;3.92;3.22;;;;;;;14.43;74.70;100784.06;1771765;79;21129;-87
2022/06/06 00:29:08;;;;;;;7.75;3.42;;;;;;;14.40;74.80;100784.27;1769206;81;21005;-87
2022/06/06 00:37:09;;;;;;;5.58;3.22;;;;;;;14.31;75.14;100791.55;1768963;81;20866;-87
2022/06/06 00:39:35;;;;;;;7.10;3.15;;;;;;;14.30;75.13;100796.47;1768682;81;21243;-88
2022/06/06 00:42:02;;;;;;;3.90;3.60;;;;;;;14.29;75.34;100794.77;1768565;81;20913;-87
2022/06/06 00:44:32;;;;;;;3.27;3.08;;;;;;;14.29;75.35;100788.17;1768754;81;20932;-86
2022/06/06 00:47:21;;;;;;;3.10;2.75;;;;;;;14.29;75.35;100788.17;1768449;80;20901;-85
2022/06/06 00:49:55;;;;;;;3.50;3.20;;;;;;;14.29;75.35;100800.91;1768914;81;21007;-87
2022/06/06 00:52:33;;;;;;;3.60;2.47;;;;;;;14.28;75.26;100793.94;1768878;80;21561;-87
2022/06/06 00:55:04;;;;;;;4.08;3.05;;;;;;;14.29;75.42;100802.23;1768897;80;20925;-87
2022/06/06 00:57:34;;;;;;;3.62;3.33;;;;;;;14.27;75.46;100793.58;1768975;81;20940;-87
2022/06/06 01:00:04;;;;;;;4.87;4.33;;;;;;;14.25;75.53;100794.17;1768948;81;21470;-87
2022/06/06 01:02:31;;;;;;;3.20;3.00;;;;;;;14.22;75.71;100799.65;1768936;81;20940;-87
2022/06/06 01:05:01;;;;;;;3.95;3.50;;;;;;;14.20;75.71;100796.77;1768842;81;21227;-86
2022/06/06 01:07:26;;;;;;;3.50;2.85;;;;;;;14.20;75.71;100796.77;1768819;81;21362;-87
2022/06/06 01:09:53;;;;;;;2.80;2.60;;;;;;;14.18;76.16;100790.27;1769046;81;20885;-87
2022/06/06 01:12:20;;;;;;;3.50;3.20;;;;;;;14.16;76.23;100790.88;1768968;81;20893;-86
2022/06/06 01:14:57;;;;;;;4.80;3.33;;;;;;;14.14;76.26;100787.52;1768918;81;20908;-86
2022/06/06 01:17:42;;;;;;;3.65;3.35;;;;;;;14.11;76.29;100791.67;1768980;80;21210;-86
2022/06/06 01:20:31;;;;;;;;;;;;;;;14.08;76.36;100791.42;1771337;81;20940;-86
2022/06/06 01:23:27;;;;;;;5.53;3.02;;;;;;;14.07;76.44;100794.16;1769509;81;20093;-86
2022/06/06 01:26:11;;;;;;;3.67;2.75;;;;;;;14.02;76.42;100797.13;1768288;81;20952;-85
2022/06/06 01:29:02;;;;;;;7.25;2.52;;;;;;;13.98;76.43;100805.37;1769603;81;20953;-87
2022/06/06 01:31:43;;;;;;;3.85;2.60;;;;;;;13.93;76.56;100810.97;1770887;81;21165;-84
2022/06/06 01:34:12;;;;;;;3.83;2.83;;;;;;;13.87;76.81;100814.91;1769570;81;20968;-87
2022/06/06 01:36:39;;;;;;;3.05;2.85;;;;;;;13.84;77.06;100805.88;1769342;81;20929;-88
2022/06/06 01:39:12;;;;;;;4.80;3.00;;;;;;;13.83;77.13;100811.27;1769075;79;20865;-87
2022/06/06 01:42:03;;;;;;;4.50;2.65;;;;;;;13.79;77.09;100805.36;1769404;81;21434;-87
2022/06/06 01:44:57;;;;;;;2.40;2.20;;;;;;;13.78;77.23;100804.14;1769100;81;21366;-87
2022/06/06 01:47:30;;;;;;;2.90;2.70;;;;;;;13.74;77.45;100808.81;1741406;82;21068;-87
2022/06/06 01:49:56;;;;;;;6.13;2.97;;;;;;;13.72;77.47;100808.08;1747726;82;21072;-88
2022/06/06 01:52:23;;;;;;;2.77;2.58;;;;;;;13.70;77.54;100809.97;1747511;82;20891;-87
2022/06/06 01:54:57;;;;;;;2.83;2.60;;;;;;;13.67;77.42;100814.98;1749368;82;20961;-85
2022/06/06 01:57:25;;;;;;;3.47;3.17;;;;;;;13.64;77.52;100817.81;1748392;82;21151;-87
2022/06/06 01:59:52;;;;;;;5.50;3.37;;;;;;;13.60;77.60;100813.70;1747359;82;21061;-87
2022/06/06 02:02:19;;;;;;;3.70;2.92;;;;;;;13.57;77.41;100821.83;1747254;82;20953;-87
2022/06/06 02:04:46;;;;;;;5.50;3.20;;;;;;;13.54;77.23;100822.06;1747273;82;20858;-87
2022/06/06 02:07:12;;;;;;;3.50;2.90;;;;;;;13.52;77.08;100821.77;1747407;82;20902;-86
2022/06/06 02:09:41;;;;;;;5.55;2.92;;;;;;;13.50;76.79;100822.38;1747299;82;20874;-86
2022/06/06 02:12:10;;;;;;;4.92;3.52;;;;;;;13.50;76.73;100827.64;1747794;82;21033;-85
2022/06/06 02:14:38;;;;;;;3.42;3.12;;;;;;;13.49;76.58;100830.73;1747416;82;20890;-86
2022/06/06 02:17:06;;;;;;;3.60;3.10;;;;;;;13.48;76.58;100829.89;1747149;82;20949;-84
2022/06/06 02:19:34;;;;;;;7.58;3.27;;;;;;;13.50;76.55;100836.87;1747273;82;20936;-87
2022/06/06 02:22:01;;;;;;;10.40;3.33;;;;;;;13.51;76.62;100845.96;1770691;80;21368;-86
2022/06/06 02:24:28;;;;;;;3.12;2.90;;;;;;;13.52;76.52;100850.75;1784609;80;20896;-87
2022/06/06 02:26:55;;;;;;;6.90;3.17;;;;;;;13.53;76.47;100841.44;1784306;80;20923;-88
2022/06/06 02:29:21;;;;;;;4.40;3.15;;;;;;;13.55;76.45;100842.66;1784502;80;20975;-88
2022/06/06 02:31:49;;;;;;;4.28;3.15;;;;;;;13.57;76.54;100852.62;1784531;80;21062;-87
2022/06/06 02:34:16;;;;;;;4.40;3.10;;;;;;;13.59;76.67;100845.45;1784821;80;21130;-87
2022/06/06 02:36:43;;;;;;;5.37;2.77;;;;;;;13.62;76.72;100854.45;1784577;80;21054;-87
2022/06/06 02:39:11;;;;;;;5.72;3.20;;;;;;;13.65;76.76;100870.91;1784449;80;20964;-86
2022/06/06 02:41:38;;;;;;;4.12;2.80;;;;;;;13.68;76.69;100875.12;1784297;80;20971;-87
2022/06/06 02:44:04;;;;;;;7.30;3.25;;;;;;;13.70;76.45;100866.64;1784443;80;21003;-87
2022/06/06 02:46:31;;;;;;;6.03;2.70;;;;;;;13.73;76.63;100866.41;1783562;80;21232;-84
2022/06/06 02:48:58;;;;;;;3.15;2.72;;;;;;;13.78;76.67;100869.56;1776071;80;21015;-85
2022/06/06 02:51:24;;;;;;;6.50;2.92;;;;;;;13.82;76.52;100867.08;1776198;80;21366;-86
2022/06/06 02:53:52;;;;;;;3.72;3.35;;;;;;;13.86;76.39;100865.92;1776161;80;20968;-86
2022/06/06 02:56:19;;;;;;;10.70;3.15;;;;;;;13.90;76.39;100869.20;1776221;80;21438;-87
2022/06/06 02:58:46;;;;;;;7.17;3.10;;;;;;;13.95;76.17;100866.23;1776163;80;21801;-87
2022/06/06 03:01:13;;;;;;;4.87;3.10;;;;;;;14.01;76.03;100867.97;1775834;80;21018;-87
2022/06/06 03:03:40;;;;;;;3.42;3.00;;;;;;;14.06;76.19;100864.52;1776166;80;20989;-86
2022/06/06 03:06:23;;;;;;;7.22;3.10;;;;;;;14.13;75.96;100868.89;1776024;80;21394;-87
2022/06/06 03:09:29;;;;;;;3.40;3.10;;;;;;;14.20;75.87;100867.98;1776099;80;20975;-87
2022/06/06 03:12:41;;;;;;;3.47;3.17;;;;;;;14.26;75.91;100868.38;1775797;80;21866;-86
2022/06/06 03:15:25;;;;;;;5.47;2.85;;;;;;;14.34;76.10;100863.89;1776078;80;21249;-87
2022/06/06 03:21:33;;;;;;;4.85;3.22;;;;;;;14.54;75.85;100870.82;1776205;80;20916;-87
2022/06/06 03:24:26;;;;;;;5.75;3.37;;;;;;;14.72;75.87;100868.21;1776392;80;21449;-88
2022/06/06 03:27:13;;;;;;;3.98;3.45;;;;;;;14.72;75.87;100868.21;1776326;80;21183;-88
2022/06/06 03:29:51;;;;;;;5.53;3.15;;;;;;;14.82;75.94;100853.36;1775615;80;20940;-87
2022/06/06 03:32:37;;;;;;;4.62;3.80;;;;;;;14.91;76.05;100855.31;1776034;80;20960;-87
2022/06/06 03:35:34;;;;;;;6.40;2.95;;;;;;;15.02;75.92;100857.64;1776241;80;20892;-87
2022/06/06 03:38:10;;;;;;;4.90;2.62;;;;;;;15.10;75.81;100853.47;1776129;80;20916;-87
2022/06/06 03:41:24;;;;;;;3.92;3.02;;;;;;;15.21;75.61;100863.23;1776397;80;22111;-89
2022/06/06 03:44:24;;;;;;;4.45;3.25;;;;;;;15.32;75.18;100866.39;1776342;80;20921;-88
2022/06/06 03:47:13;;;;;;;4.12;2.92;;;;;;;15.46;74.78;100874.09;1679065;85;21020;-88
2022/06/06 03:50:05;;;;;;;4.83;3.60;;;;;;;15.59;74.82;100881.09;1714245;83;20979;-88
2022/06/06 03:52:46;;;;;;;3.30;2.65;;;;;;;15.71;74.44;100884.13;1714799;83;20944;-89
2022/06/06 03:55:41;;;;;;;3.98;2.90;;;;;;;15.98;73.61;100889.55;1713472;83;21080;-89
2022/06/06 03:58:09;;;;;;;6.62;3.60;;;;;;;15.98;73.61;100889.55;1713481;83;20960;-87
2022/06/06 04:00:36;;;;;;;2.60;2.45;;;;;;;16.13;73.25;100881.23;1713578;83;20988;-87
2022/06/06 04:03:05;;;;;;;6.20;3.40;;;;;;;16.41;72.38;100875.08;1713362;83;20949;-87
2022/06/06 04:05:36;;;;;;;5.28;3.90;;;;;;;16.41;72.38;100875.08;1713532;83;20999;-88
2022/06/06 04:08:04;;;;;;;4.97;3.17;;;;;;;16.58;71.79;100884.29;1713466;83;21246;-87
2022/06/06 04:10:51;;;;;;;6.80;3.30;;;;;;;16.86;71.27;100882.08;1713441;83;20932;-89
2022/06/06 04:13:55;;;;;;;5.12;3.08;;;;;;;17.33;70.35;100874.13;1713280;83;21068;-87
2022/06/06 04:16:49;;;;;;;3.67;3.10;;;;;;;18.00;68.99;100882.11;1713844;83;20912;-86
2022/06/06 04:19:50;;;;;;;4.77;3.33;;;;;;;18.82;65.25;100890.86;1711400;83;20976;-85
2022/06/06 04:22:55;;;;;;;6.78;3.05;;;;;;;19.60;63.21;100884.97;1713473;83;21311;-86
2022/06/06 04:25:42;;;;;;;7.83;3.65;;;;;;;20.37;61.27;100886.16;1740715;80;21011;-87
2022/06/06 04:28:46;;;;;;;10.90;3.80;;;;;;;21.07;59.39;100891.20;1775423;80;21007;-89
2022/06/06 04:31:51;;;;;;;3.70;3.40;;;;;;;21.68;57.72;100897.52;1775991;80;20924;-90
2022/06/06 04:34:52;;;;;;;5.17;3.08;;;;;;;22.31;55.20;100900.84;1776116;80;22132;-88
2022/06/06 04:37:36;;;;;;;5.12;3.50;;;;;;;22.76;52.49;100898.27;1739054;82;21795;-89
2022/06/06 04:40:52;;;;;;;4.80;3.20;;;;;;;23.11;50.55;100902.52;1776236;80;26587;-89
2022/06/06 04:43:27;;;;;;;3.42;3.08;;;;;;;23.40;49.86;100904.35;1776158;80;20912;-89
2022/06/06 04:46:09;;;;;;;4.17;2.62;;;;;;;23.80;48.81;100890.07;1776059;80;20928;-88
2022/06/06 04:48:36;;;;;;;2.60;2.25;;;;;;;24.17;47.68;100892.11;1775922;80;20928;-90
2022/06/06 04:51:03;;;;;;;2.52;2.30;;;;;;;24.52;45.61;100894.47;1776087;80;21493;-90
2022/06/06 04:53:31;;;;;;;7.47;2.58;;;;;;;24.81;45.20;100893.28;1754446;80;20908;-89
2022/06/06 04:56:02;;;;;;;3.80;2.83;;;;;;;25.14;44.68;100896.20;1776298;80;21358;-89
2022/06/06 04:58:31;;;;;;;3.95;2.35;;;;;;;25.48;43.85;100890.40;1755308;80;21263;-89
2022/06/06 05:02:26;;;;;;;2.20;2.10;;;;;;;26.10;42.45;100893.26;1798720;79;22644;-89
2022/06/06 05:04:53;;;;;;;2.92;2.30;;;;;;;26.34;41.78;100895.28;1759231;80;21078;-88
2022/06/06 05:07:49;;;;;;;7.33;2.15;;;;;;;26.70;41.14;100890.42;1758958;80;21952;-88
2022/06/06 05:10:24;;;;;;;5.10;1.87;;;;;;;26.99;39.96;100890.80;1758677;81;20876;-89
2022/06/06 05:13:16;;;;;;;3.80;1.82;;;;;;;27.28;39.36;100901.98;1758799;80;20971;-87
2022/06/06 05:16:01;;;;;;;3.75;1.70;;;;;;;27.53;38.80;100903.71;1758369;81;20890;-89
2022/06/06 05:18:51;;;;;;;3.92;2.70;;;;;;;27.78;37.86;100909.45;1758883;80;20951;-87
2022/06/06 05:21:46;;;;;;;4.85;2.58;;;;;;;27.86;37.60;100908.52;1759193;80;21133;-89
2022/06/06 05:24:44;;;;;;;6.90;1.98;;;;;;;28.05;37.11;100911.80;1758937;80;21397;-88
2022/06/06 05:27:41;;;;;;;2.92;1.70;;;;;;;28.15;36.34;100907.91;1721018;81;20864;-90
2022/06/06 05:30:18;;;;;;;3.42;1.80;;;;;;;28.25;36.74;100907.84;1759096;79;21386;-89
2022/06/06 05:33:11;;;;;;;8.78;2.30;;;;;;;28.61;36.25;100912.66;1758993;80;20912;-87
2022/06/06 05:35:55;;;;;;;3.60;2.92;;;;;;;28.92;36.18;100911.57;1759127;80;21449;-88
2022/06/06 05:38:50;;;;;;;3.40;1.62;;;;;;;29.06;35.71;100908.88;1759362;81;20881;-90
2022/06/06 05:41:48;;;;;;;3.08;1.72;;;;;;;29.18;35.74;100909.14;1758284;78;20853;-89
2022/06/06 05:44:27;;;;;;;2.33;1.90;;;;;;;29.45;35.47;100903.20;1759343;80;21358;-91
2022/06/06 05:47:09;;;;;;;2.40;1.85;;;;;;;29.73;35.02;100900.28;1723742;80;20900;-89
2022/06/06 05:50:11;;;;;;;3.98;1.77;;;;;;;30.01;34.26;100908.08;1740688;81;21852;-90
2022/06/06 05:53:16;;;;;;;2.33;0.88;;;;;;;30.26;33.77;100906.00;1741884;82;21432;-86
2022/06/06 05:56:10;;;;;;;5.15;1.22;;;;;;;30.50;33.07;100909.87;1740674;81;21005;-90
2022/06/06 05:58:59;;;;;;;11.18;8.58;;;;;;;30.67;32.23;100913.73;1740603;82;20922;-88
2022/06/06 06:01:41;;;;;;;7.72;4.17;;;;;;;30.89;31.99;100920.19;1738705;82;20911;-87
2022/06/06 06:04:57;;;;;;;2.60;2.40;;;;;;;30.74;32.05;100917.22;1737576;81;21422;-89
2022/06/06 06:08:03;;;;;;;2.27;1.20;;;;;;;30.51;32.47;100916.43;1737901;81;20914;-89
2022/06/06 06:10:59;;;;;;;4.40;1.57;;;;;;;30.68;32.13;100928.94;1737473;82;20894;-89
2022/06/06 06:13:32;;;;;;;26.48;24.00;;;;;;;30.92;32.51;100931.39;1737121;81;20954;-88
2022/06/06 06:16:00;;;;;;;48.98;44.42;;;;;;;31.30;31.80;100946.73;1737849;81;21048;-88
2022/06/06 06:18:47;;;;;;;10.65;9.68;;;;;;;31.46;30.85;100942.69;1737328;82;21265;-88
2022/06/06 06:21:19;;;;;;;5.58;2.35;;;;;;;31.57;30.78;100941.11;1737245;82;21293;-87
2022/06/06 06:23:56;;;;;;;4.08;1.17;;;;;;;31.63;30.61;100944.81;1737568;81;20894;-89
2022/06/06 06:26:22;;;;;;;4.53;3.50;;;;;;;31.83;30.54;100945.97;1740122;81;21425;-88
2022/06/06 06:28:49;;;;;;;3.52;2.20;;;;;;;32.04;30.32;100948.78;1745514;81;20924;-87
2022/06/06 06:31:33;;;;;;;2.60;1.37;;;;;;;32.23;30.33;100949.08;1745839;78;21215;-88
2022/06/06 06:34:22;;;;;;;1.17;1.07;;;;;;;32.47;29.14;100945.14;1747728;81;20853;-87
2022/06/06 06:37:06;;;;;;;1.50;0.90;;;;;;;32.75;29.04;100953.55;1746411;82;21505;-88
2022/06/06 06:39:42;;;;;;;2.80;1.90;;;;;;;33.01;28.26;100948.22;1731237;81;20925;-88
2022/06/06 06:42:52;;;;;;;1.42;0.85;;;;;;;33.18;28.00;100948.95;1745622;80;20853;-90
2022/06/06 06:45:29;;;;;;;2.45;1.35;;;;;;;33.19;28.53;100947.33;1746106;81;21899;-90
2022/06/06 06:48:04;;;;;;;1.12;0.90;;;;;;;33.37;28.07;100945.08;1745719;81;20913;-88
2022/06/06 06:50:48;;;;;;;1.77;1.30;;;;;;;33.39;27.25;100946.17;1745689;81;21509;-89
2022/06/06 06:53:44;;;;;;;4.62;1.30;;;;;;;33.42;27.03;100946.55;1693483;83;21017;-88
2022/06/06 06:56:30;;;;;;;4.80;2.95;;;;;;;33.53;26.88;100949.48;1671435;84;21031;-89
2022/06/06 06:59:11;;;;;;;1.47;0.50;;;;;;;33.67;26.42;100941.97;1678949;82;21226;-89
2022/06/06 07:08:55;;;;;;;0.85;0.30;;;;;;;34.20;24.16;100944.50;1699408;83;20932;-89
2022/06/06 07:11:36;;;;;;;3.27;2.90;;;;;;;34.22;23.90;100942.91;1699071;83;20967;-91
2022/06/06 07:14:17;;;;;;;1.45;0.90;;;;;;;34.35;24.56;100937.69;1698662;83;21827;-90
2022/06/06 07:16:44;;;;;;;8.90;2.35;;;;;;;34.58;24.22;100938.96;1698915;80;20931;-88
2022/06/06 07:19:17;;;;;;;15.95;14.63;;;;;;;34.73;23.74;100938.97;1698622;83;20895;-87
2022/06/06 07:21:49;;;;;;;4.58;1.05;;;;;;;34.63;23.16;100936.89;1698571;83;20971;-89
2022/06/06 07:24:20;;;;;;;2.22;0.93;;;;;;;34.54;23.52;100938.33;1698867;84;20923;-90
2022/06/06 07:26:48;;;;;;;0.88;0.30;;;;;;;34.62;23.29;100929.81;1699105;83;21619;-90
2022/06/06 07:29:18;;;;;;;1.82;0.50;;;;;;;34.66;23.58;100935.03;1701186;82;20979;-90
2022/06/06 07:32:38;;;;;;;2.77;0.53;;;;;;;34.74;23.27;100927.83;1751795;82;20985;-89
2022/06/06 07:35:27;;;;;;;5.08;0.50;;;;;;;34.79;23.05;100926.55;1730833;82;20929;-89
2022/06/06 07:38:18;;;;;;;2.12;0.40;;;;;;;34.65;23.03;100927.94;1751891;81;20955;-88
2022/06/06 07:40:54;;;;;;;0.65;0.40;;;;;;;34.46;22.38;100926.77;1750989;81;21109;-90
2022/06/06 07:43:53;;;;;;;4.72;4.30;;;;;;;34.36;22.37;100925.73;1751594;81;20960;-89
2022/06/06 07:46:45;;;;;;;5.47;4.05;;;;;;;34.31;23.08;100929.70;1751296;81;20917;-87
2022/06/06 07:49:21;;;;;;;3.22;1.55;;;;;;;34.24;23.36;100931.20;1740062;82;20968;-89
2022/06/06 07:52:19;;;;;;;5.90;5.35;;;;;;;34.16;23.34;100941.14;1751341;81;20927;-89
2022/06/06 07:55:38;;;;;;;2.87;0.40;;;;;;;34.01;23.07;100928.00;1751528;81;21140;-90
2022/06/06 07:58:16;;;;;;;2.87;0.70;;;;;;;33.76;23.77;100935.09;1750931;81;20908;-89
2022/06/06 08:00:43;;;;;;;4.12;1.95;;;;;;;33.55;24.49;100931.89;1751639;81;20980;-89
2022/06/06 08:03:20;;;;;;;3.35;2.17;;;;;;;33.43;24.20;100933.77;1746314;80;20897;-87
2022/06/06 08:06:11;;;;;;;2.83;1.02;;;;;;;33.30;24.50;100934.82;1746577;81;20881;-89
2022/06/06 08:09:01;;;;;;;1.67;1.57;;;;;;;32.97;24.59;100940.77;1746236;81;21130;-86
2022/06/06 08:11:33;;;;;;;3.67;1.20;;;;;;;32.70;24.91;100928.13;1746008;81;20972;-87
2022/06/06 08:14:17;;;;;;;3.35;1.15;;;;;;;32.55;25.38;100933.46;1745883;81;20834;-89
2022/06/06 08:17:07;;;;;;;5.17;1.32;;;;;;;32.62;25.46;100935.55;1747700;81;20964;-87
2022/06/06 08:20:13;;;;;;;5.22;1.10;;;;;;;32.77;25.62;100932.92;1747918;78;20972;-87
2022/06/06 08:22:42;;;;;;;2.30;0.40;;;;;;;32.96;25.96;100927.72;1748047;78;21118;-87
2022/06/06 08:25:12;;;;;;;0.50;0.35;;;;;;;33.29;24.63;100933.72;1690919;79;20877;-90
2022/06/06 08:27:46;;;;;;;13.98;12.10;;;;;;;33.46;24.27;100927.84;1747071;79;20889;-88
2022/06/06 08:30:14;;;;;;;0.90;0.78;;;;;;;33.57;23.95;100927.55;1747001;81;20925;-89
2022/06/06 08:32:42;;;;;;;2.87;0.60;;;;;;;33.62;23.71;100929.08;1746272;82;20878;-89
2022/06/06 08:35:09;;;;;;;0.40;0.40;;;;;;;33.68;23.51;100932.73;1746676;81;22067;-89
2022/06/06 08:38:00;;;;;;;1.85;0.40;;;;;;;33.71;23.14;100926.83;1745975;82;20928;-87
2022/06/06 08:41:15;;;;;;;1.95;0.60;;;;;;;33.78;23.24;100935.14;1745659;81;20888;-89
2022/06/06 08:44:02;;;;;;;1.65;0.47;;;;;;;33.95;23.48;100938.48;1745142;81;20968;-87
2022/06/06 08:47:01;;;;;;;1.67;1.57;;;;;;;34.04;23.41;100932.98;1745666;81;20920;-88
2022/06/06 08:53:19;;;;;;;3.40;1.60;;;;;;;34.25;24.12;100930.97;1745989;81;20921;-88
2022/06/06 08:56:09;;;;;;;3.67;3.22;;;;;;;34.46;23.71;100926.77;1745459;82;20893;-88
2022/06/06 08:59:15;;;;;;;0.85;0.60;;;;;;;34.63;22.96;100922.73;1744755;78;20900;-89
2022/06/06 09:02:02;;;;;;;2.20;2.00;;;;;;;34.66;23.50;100924.98;1748685;80;20987;-86
2022/06/06 09:04:40;;;;;;;1.35;0.55;;;;;;;34.77;22.97;100918.33;1758880;81;21248;-88
2022/06/06 09:07:27;;;;;;;1.60;1.50;;;;;;;34.57;23.17;100921.48;1758618;81;20904;-90
2022/06/06 09:10:48;;;;;;;0.50;0.50;;;;;;;34.60;23.07;100921.84;1740718;81;20934;-89
2022/06/06 09:13:42;;;;;;;1.85;0.42;;;;;;;34.71;22.75;100921.52;1741413;81;21079;-89
2022/06/06 09:16:41;;;;;;;1.25;0.30;;;;;;;34.86;22.26;100923.16;1740993;81;20884;-89
2022/06/06 09:19:48;;;;;;;1.85;0.50;;;;;;;34.93;21.75;100914.81;1740922;81;21173;-89
2022/06/06 09:22:46;;;;;;;1.50;0.20;;;;;;;34.97;21.51;100910.49;1740617;82;20942;-89
2022/06/06 09:25:35;;;;;;;18.12;16.32;;;;;;;35.05;21.19;100908.73;1740444;81;21472;-88
2022/06/06 09:28:13;;;;;;;2.98;1.45;;;;;;;35.16;21.66;100908.39;1741391;81;20969;-89
2022/06/06 09:31:00;;;;;;;5.50;2.58;;;;;;;35.14;21.90;100902.36;1740644;81;20985;-88
2022/06/06 09:33:51;;;;;;;2.08;1.70;;;;;;;35.14;20.96;100901.54;1740212;81;21142;-87
2022/06/06 09:36:59;;;;;;;2.12;1.92;;;;;;;35.06;21.16;100900.01;1740049;81;20874;-86
2022/06/06 09:39:41;;;;;;;1.40;0.40;;;;;;;35.01;20.07;100900.75;1740909;82;20953;-89
2022/06/06 09:42:31;;;;;;;2.98;1.40;;;;;;;35.02;21.02;100896.97;1739170;81;20902;-89
2022/06/06 09:45:27;;;;;;;1.80;0.37;;;;;;;35.08;19.53;100910.12;1743645;81;21026;-90
2022/06/06 09:48:51;;;;;;;2.52;0.30;;;;;;;34.99;20.43;100898.81;1758908;81;21414;-89
2022/06/06 09:51:46;;;;;;;0.65;0.57;;;;;;;34.83;20.41;100897.73;1759318;80;20963;-87
2022/06/06 10:01:15;;;;;;;3.50;2.40;;;;;;;35.09;20.66;100888.63;1760096;81;20920;-87
2022/06/06 10:04:36;;;;;;;2.72;1.75;;;;;;;35.17;20.52;100880.03;1747030;81;21180;-90
2022/06/06 10:07:46;;;;;;;2.30;1.77;;;;;;;35.14;20.14;100890.63;1745211;81;20952;-87
2022/06/06 10:10:53;;;;;;;7.97;2.60;;;;;;;34.91;20.33;100879.31;1745682;81;20933;-90
2022/06/06 10:13:44;;;;;;;1.47;0.60;;;;;;;34.78;20.42;100881.86;1745758;82;20944;-90
2022/06/06 10:16:41;;;;;;;3.72;0.45;;;;;;;34.78;20.70;100888.66;1746112;81;20905;-91
2022/06/06 10:19:19;;;;;;;0.95;0.20;;;;;;;34.86;20.24;100890.96;1745547;81;21150;-89
2022/06/06 10:22:12;;;;;;;0.57;0.20;;;;;;;34.92;19.94;100882.34;1745442;79;20933;-89
2022/06/06 10:25:04;;;;;;;0.37;0.20;;;;;;;34.95;20.03;100881.33;1745312;81;21363;-89
2022/06/06 10:28:00;;;;;;;5.17;1.55;;;;;;;34.97;19.67;100881.88;1745842;81;20935;-91
2022/06/06 10:30:32;;;;;;;6.40;1.02;;;;;;;34.95;19.25;100875.88;1737344;81;21046;-89
2022/06/06 10:33:31;;;;;;;2.37;2.17;;;;;;;35.00;19.94;100877.30;1745594;81;21255;-89
2022/06/06 10:36:40;;;;;;;2.33;0.85;;;;;;;35.04;19.92;100876.25;1745541;81;20861;-90
2022/06/06 10:39:40;;;;;;;2.47;0.37;;;;;;;34.91;20.22;100873.35;1745903;81;20932;-89
2022/06/06 10:42:45;;;;;;;1.72;1.30;;;;;;;34.88;20.79;100866.50;1745742;81;21037;-86
2022/06/06 10:45:37;;;;;;;0.53;0.25;;;;;;;34.93;20.49;100868.99;1745614;82;20993;-88
2022/06/06 10:48:28;;;;;;;159.10;144.57;;;;;;;34.92;20.51;100864.63;1745541;80;21164;-90
2022/06/06 10:54:17;;;;;;;5.53;4.97;;;;;;;34.86;20.55;100869.16;1745544;81;20956;-90
2022/06/06 10:57:12;;;;;;;0.80;0.80;;;;;;;34.80;20.20;100872.89;1745330;81;20885;-86
2022/06/06 10:59:57;;;;;;;1.98;0.40;;;;;;;34.68;20.18;100863.41;1745764;81;20892;-88
2022/06/06 11:02:44;;;;;;;0.60;0.42;;;;;;;34.63;20.10;100868.78;1746002;78;21140;-90
2022/06/06 11:05:45;;;;;;;2.05;0.33;;;;;;;34.41;20.31;100865.91;1745617;81;20922;-88
2022/06/06 11:08:32;;;;;;;0.70;0.33;;;;;;;34.30;20.98;100858.09;1745526;81;20976;-88
2022/06/06 11:11:32;;;;;;;3.12;0.50;;;;;;;34.06;20.89;100857.32;1747986;82;20900;-88
2022/06/06 11:14:19;;;;;;;0.37;0.20;;;;;;;33.94;21.31;100862.00;1746767;81;20924;-86
2022/06/06 11:17:11;;;;;;;1.55;0.20;;;;;;;33.75;20.78;100856.73;1745904;81;21121;-90
2022/06/06 11:20:11;;;;;;;0.23;0.20;;;;;;;33.55;20.67;100860.33;1745888;81;20873;-89
2022/06/06 11:23:01;;;;;;;0.82;0.30;;;;;;;33.36;20.29;100847.42;1745910;81;21050;-91
2022/06/06 11:25:28;;;;;;;3.22;0.20;;;;;;;33.28;20.62;100849.12;1745901;82;20921;-87
2022/06/06 11:28:25;;;;;;;0.85;0.30;;;;;;;33.15;21.13;100832.52;1735387;82;21060;-90
2022/06/06 11:31:10;;;;;;;1.05;0.30;;;;;;;33.06;21.72;100831.23;1738827;81;21243;-91
2022/06/06 11:34:03;;;;;;;0.10;0.10;;;;;;;32.85;21.92;100833.98;1741956;81;20964;-90
2022/06/06 11:36:52;;;;;;;0.90;0.40;;;;;;;32.57;21.84;100832.23;1745855;81;21383;-90
2022/06/06 11:39:39;;;;;;;2.75;0.40;;;;;;;32.16;22.12;100824.33;1745809;82;20889;-89
2022/06/06 11:42:27;;;;;;;0.95;0.55;;;;;;;31.68;22.97;100821.05;1745835;80;20941;-86
2022/06/06 11:45:30;;;;;;;3.98;0.35;;;;;;;31.29;24.07;100823.66;1745912;81;21149;-88
2022/06/06 11:48:21;;;;;;;1.95;0.53;;;;;;;30.94;24.01;100821.48;1745581;81;20846;-87
2022/06/06 11:51:28;;;;;;;0.53;0.30;;;;;;;30.42;23.77;100820.30;1745626;82;20924;-88
2022/06/06 11:54:21;;;;;;;3.80;0.40;;;;;;;30.05;24.46;100820.58;1745709;81;21031;-87
2022/06/06 11:57:05;;;;;;;1.65;0.45;;;;;;;29.78;24.34;100809.06;1745596;81;20925;-88
2022/06/06 12:00:00;;;;;;;0.95;0.50;;;;;;;29.59;25.10;100807.52;1745619;80;21236;-87
2022/06/06 12:03:09;;;;;;;1.62;0.35;;;;;;;29.47;25.26;100807.89;1728241;80;21146;-86
2022/06/06 12:06:02;;;;;;;2.60;0.35;;;;;;;29.30;25.72;100809.70;1753928;81;20901;-87
2022/06/06 12:09:12;;;;;;;1.22;0.40;;;;;;;29.16;26.00;100813.45;1758923;81;20932;-86
2022/06/06 12:12:19;;;;;;;0.85;0.53;;;;;;;29.01;26.38;100815.52;1740424;81;20898;-89
2022/06/06 12:15:03;;;;;;;3.02;0.57;;;;;;;28.85;26.55;100810.84;1740460;81;21257;-89
2022/06/06 12:17:57;;;;;;;0.82;0.30;;;;;;;28.75;26.41;100815.84;1740623;82;20942;-90
2022/06/06 12:20:54;;;;;;;1.67;0.20;;;;;;;28.59;26.52;100810.84;1741203;81;21013;-89
2022/06/06 12:24:10;;;;;;;1.87;0.20;;;;;;;28.40;27.01;100813.80;1740913;82;20922;-88
2022/06/06 12:27:14;;;;;;;1.70;0.60;;;;;;;28.08;26.86;100813.50;1696962;84;20864;-88
2022/06/06 12:30:07;;;;;;;12.43;11.33;;;;;;;27.95;27.37;100822.39;1697023;83;21302;-87
2022/06/06 12:32:58;;;;;;;1.62;1.17;;;;;;;27.82;27.73;100815.56;1696749;83;21465;-88
2022/06/06 12:35:50;;;;;;;3.25;0.85;;;;;;;27.69;27.75;100813.11;1696850;83;20932;-87
2022/06/06 12:38:42;;;;;;;0.65;0.50;;;;;;;27.56;27.54;100809.00;1696567;83;20999;-89
2022/06/06 12:41:55;;;;;;;0.72;0.37;;;;;;;27.45;28.27;100806.87;1697029;84;20899;-87
2022/06/06 12:44:42;;;;;;;2.87;0.65;;;;;;;27.41;28.51;100806.95;1697084;82;21781;-88
2022/06/06 12:47:34;;;;;;;2.17;0.60;;;;;;;27.32;29.01;100807.62;1705679;83;21300;-86
2022/06/06 12:50:35;;;;;;;2.52;0.85;;;;;;;27.20;29.07;100813.22;1715634;83;20928;-89
2022/06/06 12:53:24;;;;;;;4.97;3.52;;;;;;;27.06;29.29;100821.72;1715684;83;21023;-90
2022/06/06 12:56:38;;;;;;;2.33;1.52;;;;;;;26.98;29.22;100819.17;1715631;83;20944;-91
2022/06/06 12:59:29;;;;;;;1.12;0.80;;;;;;;26.91;29.20;100815.59;1758955;81;21793;-88
2022/06/06 13:02:21;;;;;;;7.47;6.05;;;;;;;26.83;29.05;100815.20;1756505;81;21342;-86
2022/06/06 13:05:30;;;;;;;6.75;5.47;;;;;;;26.74;29.40;100809.13;1758683;81;20852;-88
2022/06/06 13:08:05;;;;;;;4.92;4.00;;;;;;;26.61;29.78;100799.10;1758887;81;20901;-86
2022/06/06 13:10:56;;;;;;;1.27;0.40;;;;;;;26.51;29.92;100809.83;1759363;81;21019;-87
2022/06/06 13:13:56;;;;;;;1.35;0.60;;;;;;;26.44;29.62;100804.38;1759214;81;21088;-87
2022/06/06 13:16:48;;;;;;;1.00;0.72;;;;;;;26.38;29.53;100810.52;1758778;80;21123;-87